KCHK

Details ICAO KCHK
Name CHICKASHA MUNI
Region United States
Timezone America/Chicago (UTC-6.0)
Plans Departing 5
Arriving 0
Stats Elevation 1,150 ft / 351 m (AMSL)
Location 35.097590° -97.967212°
Runways 3
Magnetic Variation 4.000° E
Sunrise 2017-12-15 13:34:20 UTC / 2017-12-15 07:34:20 Local
Sunset 2017-12-15 23:22:45 UTC / 2017-12-15 17:22:45 Local
Advertisement - Login to hide

Runways

ID Width Length Bearing (true) Bearing (mag) Surface Threshold Offset Overrun Length
04 100 ft / 30 m 2,529 ft / 771 m 32.87° 28.87° Grass 0 ft / 0 m 0 ft / 0 m
17 100 ft / 30 m 5,113 ft / 1,558 m 180.00° 176.00° Concrete 0 ft / 0 m 0 ft / 0 m
18 145 ft / 44 m 2,847 ft / 868 m 180.00° 176.00° Grass 0 ft / 0 m 0 ft / 0 m
22 100 ft / 30 m 2,529 ft / 771 m 212.87° 208.87° Grass 0 ft / 0 m 0 ft / 0 m
35 100 ft / 30 m 5,113 ft / 1,558 m 0.00° 356.00° Concrete 0 ft / 0 m 0 ft / 0 m
36 145 ft / 44 m 2,847 ft / 868 m 0.00° 356.00° Grass 0 ft / 0 m 0 ft / 0 m

Map

Weather


0- 5 10 15 20 25 30 35+ Temperature / ° C

Clouds and Precipitation
Forecast for 2017-12-16 06:00 UTC. Updated 36 minutes ago

Ground ~20,000 ft ~40,000 ft Winds

METAR

KCHK 160335Z AUTO 18009KT 10SM CLR 05/M06 A3007 RMK AO2 LTG DSNT NW T00491057

TAF

Not found

Frequencies

Recorded 118.17 MHz AWOS 3
Approach 124.60 MHz OKE CITY APP/DEP
Unicom 123.00 MHz CTAF/UNICOM
Warning: Do not use this data for real-world aviation or navigation. No guarantee of current accuracy is given.